Current Weather

Sydney Intl

Sydney, Australia (YSSY)

Report from: Wednesday, May 29, 2024 7:00 PM AEST
Current time: Wednesday, May 29, 2024 7:35 PM AEST

Nearby weather – Weather history – Daily summaries
Weather forecast

Temperature18.0°C (64.4°F)
Dew point13.0°C (55.4°F)
Winds 5 kts (2.6 m/s, 5.8 mph) North-Northeast (30°)
Clouds Sky clear
Altimeter30.30 in.Hg (1026 mB)
Relative humidity73 %
Density altitude133 ft. (41 m)
Remarks Ceiling and visibility OK
Flight conditions Visual Meteorological Conditions
Raw dataYSSY 290900Z 03005KT CAVOK 18/13 Q1026
An error has occurred. This application may no longer respond until reloaded. Reload 🗙